CheckWX is a tool to help pilots better visualize weather data.  It is not intended as a substitute for an official pre-flight weather briefing.

16:07:41 UTC

EGPO TAF
Stornoway Airport
Stornoway, United Kingdom
TAF EGPO 181357Z 1815/1824 04012KT 9999 FEW020 PROB30 TEMPO 1815/1820 06017G27KT 6000 SHRA BKN014

Oct-18@
15:00 UTC

Oct-18 @ 15:00 UTC

Oct-19@
00:00 UTC

Oct-19 @ 00:00 UTC

TAF EGPO 181357Z 1815/1824 04012KT 9999 FEW020
Wind
  • 040° at 12 KTS
Cloud Levels
  • Few at 2,000' AGL

Oct-18@
15:00 UTC

Oct-18 @ 15:00 UTC

Oct-18@
20:00 UTC

Oct-18 @ 20:00 UTC

PROB30 TEMPO 1815/1820 06017G27KT 6000 SHRA BKN014

Temporary - 30% Likelihood

Temporary - 30% Likelihood during this time.

Wind
  • 060° at 17 KTS
  • {Gusting to 27 KTS
Conditions
Rain
Cloud Levels
  • Broken at 1,400' AGL